Time;durP1;ratioP1;P1;durP2;ratioP2;P2;SDS_P1;SDS_P2;PMS_P1;PMS_P2;Temp;Humidity;BMP_temperature;BMP_pressure;BME280_temperature;BME280_humidity;BME280_pressure;Samples;Min_cycle;Max_cycle;Signal;HPM_P1;HPM_P2
2021/01/22 00:02:06;;;;;;;1.80;1.75;;;9.90;99.90;;;10.71;62.74;95964.22;5214041;28;20213;-74
2021/01/22 00:04:39;;;;;;;1.30;1.30;;;9.90;99.90;;;10.70;62.54;95972.72;5222463;28;20202;-74
2021/01/22 00:07:11;;;;;;;1.40;1.30;;;9.80;99.90;;;10.74;62.77;95971.09;5224909;28;20227;-75
2021/01/22 00:09:43;;;;;;;1.40;1.40;;;9.80;99.90;;;10.91;61.41;95967.28;5220705;28;20197;-75
2021/01/22 00:12:15;;;;;;;1.25;1.25;;;10.00;99.90;;;11.00;61.01;95958.97;5220940;28;20300;-75
2021/01/22 00:14:48;;;;;;;1.27;1.27;;;10.00;99.90;;;11.03;61.15;95961.59;5222456;28;20201;-75
2021/01/22 00:17:20;;;;;;;1.30;1.30;;;10.20;99.90;;;10.76;61.56;95972.88;5203898;28;20216;-75
2021/01/22 00:19:53;;;;;;;1.55;1.55;;;10.10;99.90;;;10.67;61.98;95970.06;5215928;28;20288;-75
2021/01/22 00:22:25;;;;;;;1.38;1.27;;;9.90;99.90;;;10.52;63.33;95959.44;5221401;28;20249;-75
2021/01/22 00:24:57;;;;;;;1.80;1.73;;;9.80;99.90;;;10.57;63.24;95952.78;5220308;28;20197;-76
2021/01/22 00:27:29;;;;;;;1.40;1.40;;;9.70;99.90;;;10.48;64.12;95950.84;5221960;28;20205;-76
2021/01/22 00:30:01;;;;;;;1.73;1.63;;;9.70;99.90;;;10.56;63.57;95938.28;5223533;28;20202;-75
2021/01/22 00:32:34;;;;;;;1.60;1.60;;;9.60;99.90;;;10.45;64.08;95944.81;5214621;28;20228;-75
2021/01/22 00:35:09;;;;;;;1.63;1.58;;;9.60;99.90;;;10.52;63.40;95936.47;5216598;28;20198;-75
2021/01/22 00:37:43;;;;;;;1.40;1.40;;;9.60;99.90;;;10.45;62.96;95944.81;5207046;28;20204;-72
2021/01/22 00:40:15;;;;;;;1.60;1.50;;;9.60;99.90;;;10.59;62.82;95941.78;5222589;28;20254;-72
2021/01/22 00:42:47;;;;;;;1.67;1.63;;;9.70;99.90;;;10.74;62.73;95941.31;5216775;28;20316;-73
2021/01/22 00:45:19;;;;;;;1.70;1.70;;;9.70;99.90;;;10.65;62.85;95956.41;5223801;28;20292;-72
2021/01/22 00:47:51;;;;;;;1.90;1.80;;;9.80;99.90;;;10.56;63.62;95928.06;5213350;28;20202;-75
2021/01/22 00:50:24;;;;;;;1.58;1.58;;;9.70;99.90;;;10.71;63.36;95931.00;5223093;28;20372;-75
2021/01/22 00:52:56;;;;;;;1.98;1.88;;;9.80;99.90;;;10.71;64.45;95922.47;5226753;28;20209;-75
2021/01/22 00:55:28;;;;;;;1.80;1.70;;;9.90;99.90;;;10.81;64.03;95904.84;5221681;28;20573;-74
2021/01/22 00:58:00;;;;;;;1.90;1.80;;;10.10;99.90;;;10.77;63.47;95903.03;5227698;28;20288;-74
2021/01/22 01:00:33;;;;;;;1.80;1.70;;;10.00;99.90;;;10.73;63.62;95895.25;5226861;28;20213;-75
2021/01/22 01:03:07;;;;;;;2.10;2.00;;;10.00;99.90;;;10.65;64.07;95897.63;5210337;28;20232;-75
2021/01/22 01:05:40;;;;;;;1.92;1.83;;;9.90;99.90;;;10.64;63.85;95895.88;5223414;28;20200;-75
2021/01/22 01:08:13;;;;;;;1.48;1.48;;;9.90;99.90;;;10.45;65.17;95911.59;5224907;28;20468;-76
2021/01/22 01:10:45;;;;;;;1.50;1.50;;;9.70;99.90;;;10.43;65.69;95920.91;5224673;28;20205;-76
2021/01/22 01:13:17;;;;;;;1.85;1.77;;;9.60;99.90;;;10.24;65.57;95912.72;5210886;28;20232;-72
2021/01/22 01:15:49;;;;;;;1.75;1.70;;;9.50;99.90;;;10.20;65.93;95918.56;5211543;28;20208;-76
2021/01/22 01:18:21;;;;;;;2.00;1.90;;;9.40;99.90;;;10.12;66.85;95920.91;5217652;28;20205;-75
2021/01/22 01:20:58;;;;;;;1.80;1.70;;;9.30;99.90;;;10.00;66.32;95914.63;5225786;28;20196;-75
2021/01/22 01:23:30;;;;;;;1.58;1.58;;;9.20;99.90;;;9.91;67.24;95911.00;5225100;28;20604;-74
2021/01/22 01:26:02;;;;;;;1.77;1.67;;;9.10;99.90;;;9.82;67.16;95920.09;5225042;28;20304;-75
2021/01/22 01:28:34;;;;;;;1.58;1.48;;;9.00;99.90;;;9.79;67.33;95920.00;5227134;28;20201;-75
2021/01/22 01:31:06;;;;;;;1.85;1.77;;;8.90;99.90;;;9.70;67.04;95911.25;5226579;28;20198;-71
2021/01/22 01:33:39;;;;;;;1.73;1.73;;;8.90;99.90;;;9.66;67.78;95917.06;5206859;28;20228;-72
2021/01/22 01:36:12;;;;;;;1.75;1.70;;;8.80;99.90;;;9.56;67.77;95917.66;5226621;28;20205;-72
2021/01/22 01:38:44;;;;;;;2.42;2.30;;;8.60;99.90;;;9.51;68.64;95914.09;5225447;28;20207;-75
2021/01/22 01:41:16;;;;;;;2.30;1.90;;;8.50;99.90;;;9.51;67.97;95909.00;5224290;28;20205;-75
2021/01/22 01:43:48;;;;;;;2.10;2.00;;;8.50;99.90;;;9.41;68.72;95907.88;5212298;28;20228;-75
2021/01/22 01:46:21;;;;;;;2.17;2.08;;;8.50;99.90;;;9.30;68.12;95908.34;5206198;28;20205;-75
2021/01/22 01:48:53;;;;;;;2.10;1.90;;;8.30;99.90;;;9.42;67.77;95904.47;5223621;28;20189;-75
2021/01/22 01:51:26;;;;;;;1.67;1.58;;;8.40;99.90;;;9.55;65.90;95899.72;5226504;28;20315;-75
2021/01/22 01:53:59;;;;;;;2.00;1.90;;;8.60;99.90;;;9.67;66.13;95908.63;5223607;28;20228;-73
2021/01/22 01:56:33;;;;;;;1.20;1.20;;;8.80;99.90;;;9.90;65.46;95899.06;5224021;28;20200;-75
2021/01/22 01:59:06;;;;;;;1.75;1.75;;;9.00;99.90;;;9.89;65.67;95902.41;5208759;28;20205;-72
2021/01/22 02:01:40;;;;;;;1.90;1.80;;;9.20;99.90;;;9.98;65.80;95901.81;5208894;28;20213;-71
2021/01/22 02:04:12;;;;;;;1.80;1.80;;;9.30;99.90;;;10.15;64.82;95895.47;5226116;28;20704;-75
2021/01/22 02:06:45;;;;;;;1.80;1.70;;;9.40;99.90;;;10.07;65.34;95891.88;5224152;28;20287;-75
2021/01/22 02:09:18;;;;;;;1.95;1.85;;;9.30;99.90;;;10.24;64.08;95899.09;5222552;28;20450;-75
2021/01/22 02:11:50;;;;;;;1.98;1.88;;;9.50;99.90;;;10.14;64.21;95901.41;5223832;28;20205;-75
2021/01/22 02:14:23;;;;;;;2.00;1.90;;;9.50;99.90;;;10.06;64.56;95899.47;5225955;28;20283;-76
2021/01/22 02:16:55;;;;;;;1.57;1.47;;;9.30;99.90;;;10.04;65.65;95885.78;5223986;28;20296;-76
2021/01/22 02:19:43;;;;;;;1.50;1.50;;;9.30;99.90;;;10.12;64.58;95885.16;5224749;28;20272;-76
2021/01/22 02:22:16;;;;;;;1.83;1.83;;;9.30;99.90;;;10.05;64.27;95883.28;5225127;28;20228;-76
2021/01/22 02:24:48;;;;;;;1.60;1.60;;;9.20;99.90;;;9.98;65.03;95888.19;5221015;28;20201;-76
2021/01/22 02:27:23;;;;;;;1.75;1.65;;;9.10;99.90;;;10.00;65.05;95879.75;5222344;28;20206;-76
2021/01/22 02:29:57;;;;;;;1.73;1.63;;;9.10;99.90;;;9.97;65.56;95873.72;5217039;28;20226;-73
2021/01/22 02:32:29;;;;;;;1.85;1.75;;;9.10;99.90;;;9.96;65.67;95869.41;5217136;28;20300;-76
2021/01/22 02:35:05;;;;;;;1.70;1.63;;;9.10;99.90;;;10.09;63.94;95863.81;5225145;28;20251;-76
2021/01/22 02:37:38;;;;;;;1.67;1.60;;;9.20;99.90;;;10.04;64.70;95861.13;5223746;28;21415;-74
2021/01/22 02:40:12;;;;;;;2.00;1.73;;;9.20;99.90;;;10.20;64.35;95857.31;5222889;28;20209;-76
2021/01/22 02:42:48;;;;;;;2.20;1.77;;;9.20;99.90;;;10.14;64.12;95854.59;5224921;28;20220;-74
2021/01/22 02:45:21;;;;;;;2.00;1.90;;;9.30;99.90;;;10.19;63.30;95855.59;5225700;28;20550;-75
2021/01/22 02:47:53;;;;;;;3.13;1.80;;;9.20;99.90;;;10.31;63.19;95834.63;5211543;28;20284;-76
2021/01/22 02:50:32;;;;;;;2.03;1.90;;;9.40;99.90;;;10.33;62.24;95851.72;5221869;28;20197;-76
2021/01/22 02:53:06;;;;;;;2.00;1.90;;;9.50;99.90;;;10.31;62.90;95862.72;5225172;28;20229;-73
2021/01/22 02:55:38;;;;;;;2.20;2.10;;;9.50;99.90;;;10.19;63.50;95860.69;5222392;28;20205;-76
2021/01/22 02:58:27;;;;;;;2.53;1.88;;;9.40;99.90;;;10.21;63.73;95859.03;5225046;28;20237;-76
2021/01/22 03:01:06;;;;;;;1.88;1.77;;;9.40;99.90;;;10.10;64.28;95862.97;5225317;28;20680;-76
2021/01/22 03:03:49;;;;;;;2.10;1.90;;;9.30;99.90;;;10.14;62.73;95850.34;5218639;28;20224;-76
2021/01/22 03:06:27;;;;;;;2.28;1.70;;;9.30;99.90;;;10.02;63.05;95855.16;5225672;28;20225;-76
2021/01/22 03:09:02;;;;;;;2.60;2.38;;;9.30;99.90;;;10.06;63.26;95864.59;5220304;28;20296;-75
2021/01/22 03:11:36;;;;;;;2.40;2.20;;;9.10;99.90;;;10.01;63.48;95871.25;5223132;28;20203;-76
2021/01/22 03:14:11;;;;;;;2.90;2.10;;;9.10;99.90;;;10.03;63.82;95861.97;5218269;28;20664;-76
2021/01/22 03:16:45;;;;;;;1.95;1.85;;;9.10;99.90;;;10.11;63.20;95865.59;5224979;28;20287;-76
2021/01/22 03:19:18;;;;;;;3.67;2.45;;;9.10;99.90;;;9.93;63.89;95870.22;5223526;28;20225;-75
2021/01/22 03:21:50;;;;;;;1.60;1.50;;;9.10;99.90;;;9.94;64.28;95864.28;5224596;28;20287;-76
2021/01/22 03:24:22;;;;;;;2.78;2.00;;;9.00;99.90;;;9.80;64.89;95874.09;5220692;28;20247;-76
2021/01/22 03:26:59;;;;;;;2.20;2.00;;;9.00;99.90;;;9.92;63.29;95856.56;5223676;28;20204;-76
2021/01/22 03:29:32;;;;;;;2.33;2.22;;;9.00;99.90;;;9.89;63.73;95864.13;5224035;28;20232;-73
2021/01/22 03:32:05;;;;;;;2.38;1.80;;;9.00;99.90;;;9.92;62.96;95848.06;5216929;28;20186;-76
2021/01/22 03:34:37;;;;;;;2.15;2.05;;;9.00;99.90;;;9.88;64.12;95874.31;5218624;28;20712;-74
2021/01/22 03:37:09;;;;;;;1.92;1.70;;;8.90;99.90;;;9.80;64.21;95866.44;5224886;28;20332;-76
2021/01/22 03:39:41;;;;;;;2.10;1.88;;;8.80;99.90;;;9.67;65.22;95875.47;5222299;28;20209;-75
2021/01/22 03:42:14;;;;;;;2.67;1.90;;;8.80;99.90;;;9.63;64.91;95870.22;5220905;28;20575;-76
2021/01/22 03:44:46;;;;;;;2.65;1.85;;;8.70;99.90;;;9.87;62.05;95872.56;5223733;28;20209;-76
2021/01/22 03:47:18;;;;;;;3.28;2.50;;;8.80;99.90;;;9.98;62.33;95876.28;5208780;28;20287;-75
2021/01/22 03:49:51;;;;;;;3.45;2.40;;;9.00;99.90;;;9.97;62.18;95873.72;5224433;28;20201;-75
2021/01/22 03:52:23;;;;;;;2.78;2.20;;;9.10;99.90;;;9.71;63.35;95886.59;5223037;28;20213;-73
2021/01/22 03:54:55;;;;;;;2.30;2.05;;;8.90;99.90;;;9.51;64.52;95872.44;5214739;28;20284;-73
2021/01/22 03:57:27;;;;;;;2.58;2.13;;;8.70;99.90;;;9.46;64.68;95879.94;5219027;28;20209;-76
2021/01/22 04:00:00;;;;;;;2.72;2.35;;;8.60;99.90;;;9.38;64.31;95876.28;5203940;28;20576;-76
2021/01/22 04:02:33;;;;;;;2.53;2.08;;;8.50;99.90;;;9.47;64.58;95884.19;5211929;28;20236;-76
2021/01/22 04:05:07;;;;;;;2.40;2.20;;;8.40;99.90;;;9.53;64.23;95868.22;5224317;28;20197;-76
2021/01/22 04:07:39;;;;;;;2.90;2.40;;;8.50;99.90;;;9.46;64.48;95879.94;5222104;28;20201;-75
2021/01/22 04:10:12;;;;;;;4.10;2.22;;;8.40;99.90;;;9.26;65.39;95876.78;5218562;28;20201;-75
2021/01/22 04:12:44;;;;;;;3.00;2.33;;;8.30;99.90;;;9.33;64.35;95870.19;5216996;28;20206;-76
2021/01/22 04:15:17;;;;;;;2.87;2.27;;;8.30;99.90;;;9.44;64.47;95871.38;5221485;28;20305;-76
2021/01/22 04:17:49;;;;;;;3.25;2.10;;;8.30;99.90;;;9.39;63.78;95866.16;5209782;28;20216;-75
2021/01/22 04:20:21;;;;;;;3.27;1.90;;;8.40;99.90;;;9.16;64.61;95860.38;5222978;28;20677;-75
2021/01/22 04:22:53;;;;;;;3.17;2.10;;;8.30;99.90;;;9.10;65.54;95855.09;5226514;28;20231;-76
2021/01/22 04:25:25;;;;;;;4.00;2.03;;;8.20;99.90;;;9.22;64.57;95849.50;5224999;28;20989;-76
2021/01/22 04:27:57;;;;;;;2.90;2.40;;;8.30;99.90;;;9.18;65.07;95857.84;5228095;28;20198;-75
2021/01/22 04:30:30;;;;;;;2.63;2.43;;;8.30;99.90;;;9.29;63.82;95851.38;5219468;28;20201;-75
2021/01/22 04:33:02;;;;;;;3.07;2.27;;;8.30;99.90;;;9.08;64.62;95860.97;5215769;28;20222;-75
2021/01/22 04:35:35;;;;;;;2.73;2.23;;;8.20;99.90;;;8.95;65.78;95855.47;5223481;28;20213;-75
2021/01/22 04:38:07;;;;;;;3.60;2.17;;;8.10;99.90;;;8.84;66.57;95855.97;5227085;28;20575;-76
2021/01/22 04:40:39;;;;;;;2.23;2.13;;;8.00;99.90;;;8.82;66.46;95853.38;5225446;28;20204;-76
2021/01/22 04:43:11;;;;;;;2.90;2.47;;;8.00;99.90;;;8.74;66.75;95847.19;5227076;28;20233;-75
2021/01/22 04:45:45;;;;;;;3.10;2.33;;;7.90;99.90;;;8.86;66.10;95850.09;5226661;28;20205;-76
2021/01/22 04:48:18;;;;;;;2.60;2.40;;;7.90;99.90;;;8.82;66.24;95843.19;5226764;28;20674;-75
2021/01/22 04:50:51;;;;;;;3.30;2.43;;;7.90;99.90;;;8.76;67.13;95848.09;5225491;28;20557;-75
2021/01/22 04:53:26;;;;;;;4.80;2.43;;;7.80;99.90;;;8.66;67.15;95835.88;5226369;28;20259;-71
2021/01/22 04:56:01;;;;;;;3.83;2.43;;;7.80;99.90;;;8.61;67.25;95838.28;5224576;28;20204;-76
2021/01/22 04:58:37;;;;;;;4.80;2.40;;;7.70;99.90;;;8.52;67.40;95840.53;5226796;28;20656;-76
2021/01/22 05:01:12;;;;;;;5.07;3.10;;;7.70;99.90;;;8.43;67.84;95830.06;5226912;28;20400;-75
2021/01/22 05:03:44;;;;;;;2.67;2.47;;;7.60;99.90;;;8.36;67.98;95831.53;5219621;28;20224;-75
2021/01/22 05:06:16;;;;;;;3.53;2.93;;;7.50;99.90;;;8.32;67.76;95819.50;5227325;28;20676;-75
2021/01/22 05:08:48;;;;;;;5.10;4.67;;;7.40;99.90;;;8.25;68.35;95817.59;5224008;28;20201;-75
2021/01/22 05:11:21;;;;;;;6.77;4.60;;;7.40;99.90;;;8.18;68.56;95819.03;5224678;28;20201;-76
2021/01/22 05:13:54;;;;;;;5.03;4.53;;;7.30;99.90;;;8.19;68.91;95802.13;5227367;28;20228;-76
2021/01/22 05:16:26;;;;;;;4.57;4.10;;;7.20;99.90;;;8.22;68.90;95804.75;5222690;28;20213;-76
2021/01/22 05:19:00;;;;;;;5.30;3.53;;;7.30;99.90;;;8.47;67.49;95798.78;5213340;28;20660;-73
2021/01/22 05:21:39;;;;;;;3.83;3.40;;;7.40;99.90;;;8.29;67.63;95793.94;5225827;28;20235;-76
2021/01/22 05:24:20;;;;;;;3.57;3.27;;;7.30;99.90;;;8.32;67.76;95800.00;5225749;28;20231;-76
2021/01/22 05:27:04;;;;;;;5.30;3.80;;;7.30;99.90;;;8.28;67.68;95797.31;5225243;28;20264;-75
2021/01/22 05:29:38;;;;;;;3.03;2.73;;;7.30;99.90;;;8.24;68.00;95787.84;5206612;28;20216;-75
2021/01/22 05:32:32;;;;;;;3.10;2.67;;;7.20;99.90;;;8.40;67.75;95792.66;5219072;28;20217;-76
2021/01/22 05:35:05;;;;;;;2.77;2.30;;;7.40;99.90;;;8.29;68.46;95789.72;5216451;28;20201;-75
2021/01/22 05:37:51;;;;;;;2.40;2.10;;;7.40;99.90;;;8.55;66.63;95792.25;5217877;28;20204;-75
2021/01/22 05:40:24;;;;;;;2.40;2.13;;;7.70;99.90;;;8.47;67.83;95804.78;5212962;28;20197;-76
2021/01/22 05:42:58;;;;;;;2.70;2.50;;;7.70;99.90;;;8.73;66.60;95791.97;5225865;28;20225;-73
2021/01/22 05:45:40;;;;;;;2.37;2.27;;;7.80;99.90;;;8.84;66.00;95784.63;5227311;28;20204;-76
2021/01/22 05:48:21;;;;;;;2.17;2.07;;;8.00;99.90;;;8.76;66.83;95789.53;5225586;28;20292;-76
2021/01/22 05:50:56;;;;;;;2.40;2.20;;;8.10;99.90;;;8.81;66.31;95787.97;5215023;28;20219;-73
2021/01/22 05:53:29;;;;;;;2.23;2.07;;;8.00;99.90;;;8.75;66.88;95786.09;5213242;28;20225;-75
2021/01/22 05:56:09;;;;;;;3.17;2.00;;;8.00;99.90;;;8.90;65.85;95784.81;5216472;28;20193;-75
2021/01/22 05:58:43;;;;;;;1.93;1.77;;;8.10;99.90;;;8.80;66.94;95783.69;5225729;28;20213;-75
2021/01/22 06:01:17;;;;;;;2.70;2.20;;;8.00;99.90;;;8.81;66.89;95787.97;5226569;28;20192;-74
2021/01/22 06:03:51;;;;;;;2.27;2.07;;;8.10;99.90;;;9.10;65.17;95790.50;5226065;28;20221;-75
2021/01/22 06:06:32;;;;;;;2.47;2.27;;;8.40;99.90;;;9.23;65.06;95782.41;5212416;28;20430;-75
2021/01/22 06:09:05;;;;;;;2.23;1.80;;;8.50;99.90;;;9.22;64.78;95785.78;5213243;28;20302;-73
2021/01/22 06:11:39;;;;;;;2.10;2.00;;;8.60;99.90;;;9.08;65.79;95775.19;5212389;28;20209;-75
2021/01/22 06:14:14;;;;;;;1.90;1.67;;;8.40;99.90;;;9.14;65.55;95782.13;5224536;28;20240;-75
2021/01/22 06:16:50;;;;;;;1.70;1.60;;;8.30;99.90;;;9.12;65.39;95776.97;5225982;28;20225;-76
2021/01/22 06:19:27;;;;;;;1.70;1.60;;;8.30;99.90;;;9.19;65.48;95778.91;5223205;28;20297;-76
2021/01/22 06:22:04;;;;;;;1.90;1.80;;;8.40;99.90;;;9.13;65.36;95772.75;5222148;28;21389;-76
2021/01/22 06:24:36;;;;;;;1.97;1.77;;;8.30;99.90;;;9.12;65.15;95782.09;5220296;28;20200;-76
2021/01/22 06:27:12;;;;;;;1.80;1.70;;;8.30;99.90;;;9.08;65.41;95771.78;5221540;28;20676;-74
2021/01/22 06:29:46;;;;;;;2.10;1.90;;;8.30;99.90;;;8.97;65.79;95777.41;5209084;28;20283;-76
2021/01/22 06:32:19;;;;;;;2.47;1.80;;;8.20;99.90;;;8.89;66.07;95788.19;5215702;28;20221;-75
2021/01/22 06:34:53;;;;;;;2.33;2.07;;;8.20;99.90;;;8.89;66.21;95772.91;5219897;28;20575;-76
2021/01/22 06:37:25;;;;;;;2.30;1.93;;;8.10;99.90;;;8.82;66.60;95784.63;5220697;28;20636;-76
2021/01/22 06:39:58;;;;;;;2.53;2.10;;;8.10;99.90;;;8.81;66.85;95777.78;5217294;28;20285;-76
2021/01/22 06:42:36;;;;;;;3.37;2.87;;;8.10;99.90;;;8.73;66.55;95781.78;5221228;28;20599;-74
2021/01/22 06:45:10;;;;;;;3.83;3.20;;;8.00;99.90;;;8.66;66.86;95777.31;5223345;28;20600;-76
2021/01/22 06:47:42;;;;;;;3.00;2.70;;;7.90;99.90;;;8.68;67.16;95780.78;5208105;28;20210;-76
2021/01/22 06:50:21;;;;;;;4.33;2.97;;;7.90;99.90;;;8.59;67.40;95772.88;5210087;28;20205;-76
2021/01/22 06:53:14;;;;;;;2.57;2.37;;;7.80;99.90;;;8.54;67.79;95776.13;5210184;28;20413;-73
2021/01/22 06:56:09;;;;;;;2.83;2.27;;;7.70;99.90;;;8.51;67.38;95770.94;5212851;28;20491;-76
2021/01/22 06:58:41;;;;;;;2.07;1.90;;;7.70;99.90;;;8.45;67.58;95765.66;5222604;28;20284;-75
2021/01/22 07:01:34;;;;;;;2.07;1.97;;;7.70;99.90;;;8.43;67.97;95774.91;5222491;28;20208;-76
2021/01/22 07:04:07;;;;;;;2.27;2.07;;;7.60;99.90;;;8.43;68.51;95784.25;5222951;28;20221;-75
2021/01/22 07:06:50;;;;;;;2.73;2.30;;;7.60;99.90;;;8.41;68.83;95779.09;5217340;28;20193;-75
2021/01/22 07:09:36;;;;;;;2.07;1.97;;;7.50;99.90;;;8.36;68.77;95783.16;5212767;28;20576;-74
2021/01/22 07:12:09;;;;;;;2.13;2.00;;;7.50;99.90;;;8.36;68.71;95780.63;5217562;28;20283;-74
2021/01/22 07:14:42;;;;;;;2.90;1.93;;;7.50;99.90;;;8.44;68.14;95769.03;5216200;28;20702;-74
2021/01/22 07:17:22;;;;;;;2.73;2.30;;;7.60;99.90;;;8.35;68.91;95778.88;5206275;28;20198;-74
2021/01/22 07:20:01;;;;;;;3.23;2.90;;;7.50;99.90;;;8.31;68.71;95783.00;5215401;28;20205;-74
2021/01/22 07:22:46;;;;;;;2.80;2.07;;;7.50;99.90;;;8.34;69.15;95777.16;5210743;28;20225;-73
2021/01/22 07:25:31;;;;;;;3.53;2.57;;;7.50;99.90;;;8.37;69.01;95781.47;5220255;28;20296;-75
2021/01/22 07:28:05;;;;;;;2.73;2.53;;;7.50;99.90;;;8.55;68.50;95785.47;5219439;28;20653;-74
2021/01/22 07:30:39;;;;;;;4.77;2.93;;;7.60;99.90;;;8.62;67.90;95784.00;5221746;28;20716;-74
2021/01/22 07:33:37;;;;;;;3.87;2.90;;;7.70;99.90;;;8.87;67.05;95785.63;5212859;28;20224;-76
2021/01/22 07:36:11;;;;;;;3.23;2.80;;;7.90;99.90;;;9.11;66.56;95789.69;5209041;28;20197;-73
2021/01/22 07:38:44;;;;;;;3.33;2.83;;;8.20;99.90;;;9.43;64.05;95786.38;5222275;28;20205;-75
2021/01/22 07:41:21;;;;;;;4.07;2.30;;;8.60;99.90;;;9.51;64.79;95788.28;5218002;28;20202;-74
2021/01/22 07:43:59;;;;;;;2.57;2.23;;;8.70;99.90;;;9.64;65.45;95786.09;5214194;28;20428;-74
2021/01/22 07:46:44;;;;;;;2.63;2.30;;;8.80;99.90;;;9.89;63.85;95774.84;5217716;28;20205;-74
2021/01/22 07:49:17;;;;;;;2.07;1.90;;;9.00;99.90;;;9.90;63.82;95783.34;5209954;28;20748;-74
2021/01/22 07:51:49;;;;;;;2.30;2.03;;;9.00;99.90;;;9.91;62.70;95783.41;5219794;28;20695;-74
2021/01/22 07:54:22;;;;;;;2.37;2.03;;;9.10;99.90;;;10.05;62.42;95782.91;5219509;28;20201;-73
2021/01/22 07:56:54;;;;;;;2.27;2.13;;;9.10;99.90;;;10.13;62.03;95786.50;5219765;28;20203;-75
2021/01/22 07:59:26;;;;;;;2.10;1.85;;;9.20;99.90;;;10.25;62.97;95789.34;5220739;28;20315;-76
2021/01/22 08:02:12;;;;;;;2.22;1.80;;;9.30;99.90;;;10.51;61.65;95778.94;5221955;28;20189;-76
2021/01/22 08:04:46;;;;;;;2.00;1.30;;;9.60;99.90;;;10.75;60.27;95776.94;5223323;28;20201;-76
2021/01/22 08:07:34;;;;;;;2.28;2.10;;;9.80;99.90;;;10.80;60.12;95770.25;5221083;28;20201;-73
2021/01/22 08:10:12;;;;;;;3.08;1.80;;;9.90;99.90;;;10.77;60.33;95776.97;5220674;28;20223;-74
2021/01/22 08:12:56;;;;;;;2.63;1.63;;;9.90;99.90;;;10.89;59.40;95777.25;5218591;28;20213;-71
2021/01/22 08:15:29;;;;;;;2.38;1.77;;;9.80;99.90;;;11.00;58.74;95782.59;5222866;28;20441;-74
2021/01/22 08:18:05;;;;;;;3.58;1.67;;;10.00;99.90;;;10.82;59.87;95786.47;5212653;28;20267;-74
2021/01/22 08:20:38;;;;;;;2.47;2.28;;;9.90;99.90;;;10.77;59.58;95795.72;5215998;28;20288;-74
2021/01/22 08:23:10;;;;;;;3.33;1.77;;;9.80;99.90;;;10.94;59.28;95792.69;5222018;28;20228;-74
2021/01/22 08:25:46;;;;;;;2.47;1.70;;;9.90;99.90;;;11.04;57.82;95784.38;5229356;28;20711;-74
2021/01/22 08:28:25;;;;;;;2.10;1.90;;;10.20;99.90;;;10.91;58.77;95787.50;5239204;28;20204;-74
2021/01/22 08:30:57;;;;;;;2.72;1.98;;;10.10;99.90;;;10.81;59.29;95777.06;5231679;28;20207;-74
2021/01/22 08:33:29;;;;;;;2.67;2.00;;;10.00;99.90;;;10.83;59.85;95777.97;5231358;28;20305;-73
2021/01/22 08:36:02;;;;;;;2.28;2.17;;;10.00;99.90;;;11.09;59.03;95767.44;5211894;28;20288;-73
2021/01/22 08:38:35;;;;;;;2.13;1.80;;;10.20;99.90;;;11.22;58.64;95761.75;5222923;28;20751;-74
2021/01/22 08:41:22;;;;;;;2.00;1.90;;;10.30;99.90;;;11.38;58.29;95760.34;5222832;28;20198;-74
2021/01/22 08:43:55;;;;;;;2.38;2.15;;;10.60;99.90;;;11.50;58.61;95758.06;5222531;28;20307;-73
2021/01/22 08:46:27;;;;;;;2.10;1.98;;;10.70;99.90;;;11.71;57.90;95751.63;5240956;28;20266;-75
2021/01/22 08:49:12;;;;;;;3.70;2.20;;;10.80;99.90;;;11.88;57.67;95751.97;5229089;28;20297;-74
2021/01/22 08:51:45;;;;;;;3.15;1.90;;;11.10;99.90;;;12.12;56.04;95752.38;5213964;28;20198;-74
2021/01/22 08:54:19;;;;;;;3.25;1.83;;;11.40;99.90;;;12.18;56.70;95755.03;5220966;28;20310;-74
2021/01/22 08:57:05;;;;;;;2.13;2.03;;;11.40;99.90;;;12.42;55.78;95758.84;5221098;28;20214;-74
2021/01/22 08:59:48;;;;;;;2.33;2.13;;;11.60;99.90;;;12.67;54.24;95756.63;5234920;28;20217;-73
2021/01/22 09:02:40;;;;;;;1.80;1.70;;;11.80;99.90;;;12.75;54.28;95745.66;5230670;28;20224;-74
2021/01/22 09:05:16;;;;;;;3.10;1.88;;;11.90;99.90;;;12.87;54.60;95742.41;5234001;28;20232;-74
2021/01/22 09:08:05;;;;;;;2.45;2.25;;;12.00;99.90;;;12.88;54.26;95749.25;5235952;28;20204;-74
2021/01/22 09:10:42;;;;;;;2.83;2.30;;;12.20;99.90;;;12.98;54.36;95743.41;5237948;28;20194;-75
2021/01/22 09:13:17;;;;;;;1.88;1.77;;;12.20;99.90;;;13.10;54.51;95736.72;5229282;28;20252;-74
2021/01/22 09:16:03;;;;;;;2.85;1.80;;;12.30;99.90;;;13.19;54.74;95740.28;5219883;28;20189;-74
2021/01/22 09:18:35;;;;;;;1.83;1.70;;;12.50;99.90;;;13.34;53.34;95742.19;5238480;28;20225;-74
2021/01/22 09:21:09;;;;;;;1.90;1.80;;;12.60;99.90;;;13.47;52.25;95744.03;5231948;28;20212;-74
2021/01/22 09:23:41;;;;;;;2.35;1.90;;;12.60;99.90;;;13.49;52.92;95742.34;5229236;28;20224;-74
2021/01/22 09:26:13;;;;;;;2.17;1.90;;;12.70;99.90;;;13.40;52.59;95742.25;5218139;28;20204;-74
2021/01/22 09:28:47;;;;;;;2.72;1.70;;;12.60;99.90;;;13.41;51.93;95736.28;5227700;28;20193;-73
2021/01/22 09:31:19;;;;;;;2.00;1.73;;;12.50;99.90;;;13.36;53.17;95739.63;5228437;28;20197;-75
2021/01/22 09:33:51;;;;;;;3.20;1.83;;;12.40;99.90;;;13.43;52.19;95737.16;5226111;28;20248;-74
2021/01/22 09:36:23;;;;;;;2.85;1.95;;;12.30;99.90;;;13.26;52.70;95746.38;5237041;28;20224;-74
2021/01/22 09:38:55;;;;;;;2.03;1.83;;;12.20;99.90;;;13.26;51.88;95749.78;5233676;28;20269;-74
2021/01/22 09:41:28;;;;;;;1.80;1.70;;;12.20;99.90;;;13.08;53.07;95749.53;5218818;28;20201;-74
2021/01/22 09:44:01;;;;;;;3.17;1.95;;;12.10;99.90;;;13.16;52.10;95747.03;5224895;28;20275;-75
2021/01/22 09:46:34;;;;;;;5.45;1.95;;;12.20;99.90;;;13.20;52.58;95743.69;5236927;28;20578;-73
2021/01/22 09:49:07;;;;;;;2.47;1.70;;;12.20;99.90;;;13.23;52.00;95743.72;5232855;28;20590;-73
2021/01/22 09:51:39;;;;;;;4.80;1.73;;;12.20;99.90;;;13.32;51.79;95730.19;5224000;28;20201;-73
2021/01/22 09:54:11;;;;;;;2.15;1.52;;;12.20;99.90;;;13.34;51.44;95739.63;5221941;28;20221;-75
2021/01/22 09:56:44;;;;;;;5.00;1.98;;;12.30;99.90;;;13.28;51.92;95737.00;5217756;28;20224;-74
2021/01/22 09:59:17;;;;;;;1.77;1.65;;;12.30;99.90;;;13.32;51.33;95736.16;5230177;28;20542;-75
2021/01/22 10:01:49;;;;;;;2.35;1.83;;;12.40;99.90;;;13.38;51.36;95735.38;5222483;28;20247;-73
2021/01/22 10:04:21;;;;;;;2.15;1.60;;;12.50;99.90;;;13.50;51.81;95738.09;5223746;28;20814;-74
2021/01/22 10:06:53;;;;;;;3.30;1.85;;;12.60;99.90;;;13.76;51.24;95740.91;5221597;28;20213;-74
2021/01/22 10:09:25;;;;;;;3.50;1.80;;;12.80;99.90;;;13.90;51.05;95752.19;5225911;28;20203;-73
2021/01/22 10:11:58;;;;;;;2.88;1.50;;;13.00;99.90;;;13.97;50.38;95746.28;5224018;28;20201;-74
2021/01/22 10:14:31;;;;;;;2.30;1.60;;;13.10;99.90;;;14.06;50.49;95739.53;5231486;28;20224;-74
2021/01/22 10:17:03;;;;;;;2.25;1.80;;;13.20;99.90;;;14.10;50.19;95742.09;5204116;28;20198;-73
2021/01/22 10:19:39;;;;;;;2.42;1.63;;;13.20;99.90;;;14.11;49.68;95743.84;5219236;28;20205;-73
2021/01/22 10:22:11;;;;;;;3.22;1.70;;;13.10;99.90;;;14.19;50.49;95731.06;5214726;28;20325;-74
2021/01/22 10:24:44;;;;;;;1.80;1.58;;;13.00;99.90;;;14.02;50.44;95722.34;5216576;28;20684;-73
2021/01/22 10:27:16;;;;;;;2.08;1.65;;;13.00;99.90;;;13.91;50.50;95725.69;5221974;28;20236;-74
2021/01/22 10:29:49;;;;;;;2.50;1.70;;;12.90;99.90;;;13.73;51.58;95720.34;5225398;28;20638;-74
2021/01/22 10:32:21;;;;;;;2.80;1.80;;;12.60;99.90;;;13.67;50.99;95726.28;5224926;28;20215;-75
2021/01/22 10:34:53;;;;;;;2.05;1.70;;;12.60;99.90;;;13.64;51.14;95717.69;5220165;28;20190;-75
2021/01/22 10:37:25;;;;;;;2.95;1.55;;;12.60;99.90;;;13.73;51.29;95710.97;5206993;28;20232;-73
2021/01/22 10:39:57;;;;;;;2.15;1.60;;;12.60;99.90;;;13.69;51.43;95703.22;5226343;28;20300;-76
2021/01/22 10:42:29;;;;;;;2.40;1.52;;;12.60;99.90;;;13.64;51.80;95704.88;5223670;28;20311;-73
2021/01/22 10:45:03;;;;;;;1.98;1.77;;;12.70;99.90;;;13.71;51.99;95711.81;5226691;28;20706;-76
2021/01/22 10:47:35;;;;;;;1.85;1.75;;;12.70;99.90;;;13.67;51.89;95699.75;5226575;28;20574;-73
2021/01/22 10:50:10;;;;;;;1.92;1.65;;;12.70;99.90;;;13.73;51.53;95710.09;5223970;28;20212;-74
2021/01/22 10:52:42;;;;;;;1.92;1.65;;;12.70;99.90;;;13.70;51.27;95698.06;5223552;28;20984;-75
2021/01/22 10:55:14;;;;;;;2.13;1.90;;;12.60;99.90;;;13.76;52.38;95704.97;5221329;28;20345;-73
2021/01/22 10:57:46;;;;;;;1.80;1.70;;;12.80;99.90;;;13.85;50.87;95697.38;5223443;28;20667;-74
2021/01/22 11:00:21;;;;;;;1.85;1.60;;;12.80;99.90;;;13.84;50.97;95689.66;5223748;28;20510;-72